Time;durP1;ratioP1;P1;durP2;ratioP2;P2;SDS_P1;SDS_P2;PMS_P1;PMS_P2;Temp;Humidity;BMP_temperature;BMP_pressure;BME280_temperature;BME280_humidity;BME280_pressure;Samples;Min_cycle;Max_cycle;Signal;HPM_P1;HPM_P2
2021/08/12 00:00:12;;;;;;;18.13;12.02;;;;;;;15.45;53.22;101936.56;5039398;28;20087;-71
2021/08/12 00:02:37;;;;;;;19.60;12.27;;;;;;;15.43;53.25;101930.50;5044616;28;20558;-71
2021/08/12 00:05:07;;;;;;;22.25;13.93;;;;;;;15.35;53.56;101930.84;5037191;28;20101;-71
2021/08/12 00:07:33;;;;;;;22.38;15.65;;;;;;;15.29;53.77;101926.69;5038191;28;20594;-71
2021/08/12 00:10:00;;;;;;;19.75;12.55;;;;;;;15.27;53.64;101927.69;5043611;28;20029;-71
2021/08/12 00:12:27;;;;;;;18.23;11.52;;;;;;;15.34;53.68;101926.47;5042144;28;20041;-70
2021/08/12 00:14:53;;;;;;;26.35;13.75;;;;;;;15.32;53.46;101925.69;5037044;28;20037;-70
2021/08/12 00:17:19;;;;;;;23.65;12.18;;;;;;;15.33;53.58;101924.78;5037417;28;20118;-71
2021/08/12 00:19:44;;;;;;;24.42;15.70;;;;;;;15.25;53.61;101932.16;5034430;28;20030;-70
2021/08/12 00:22:10;;;;;;;23.42;15.13;;;;;;;15.22;53.89;101927.03;5043821;28;20120;-70
2021/08/12 00:24:35;;;;;;;27.67;16.70;;;;;;;15.24;53.85;101927.78;5021981;28;20068;-70
2021/08/12 00:27:02;;;;;;;22.55;14.52;;;;;;;15.22;53.79;101922.59;5037972;28;20032;-70
2021/08/12 00:29:29;;;;;;;24.88;15.65;;;;;;;15.15;54.07;101926.41;5035636;28;20326;-72
2021/08/12 00:31:56;;;;;;;24.13;15.38;;;;;;;15.06;54.64;101925.00;5038167;28;20171;-70
2021/08/12 00:34:21;;;;;;;25.33;16.80;;;;;;;15.04;54.80;101921.59;5034937;28;20128;-70
2021/08/12 00:36:47;;;;;;;29.45;17.20;;;;;;;14.94;54.81;101917.63;5037626;28;20122;-71
2021/08/12 00:39:13;;;;;;;28.45;17.38;;;;;;;14.98;54.77;101921.84;5039739;28;20084;-71
2021/08/12 00:41:39;;;;;;;29.27;18.13;;;;;;;14.93;55.14;101923.81;5038745;28;20035;-70
2021/08/12 00:44:07;;;;;;;25.70;16.67;;;;;;;14.92;55.11;101917.66;5035354;28;20613;-71
2021/08/12 00:46:34;;;;;;;24.52;15.15;;;;;;;14.94;55.15;101922.88;5022560;28;20104;-71
2021/08/12 00:49:00;;;;;;;21.67;14.40;;;;;;;15.02;54.85;101926.06;5016537;28;20390;-71
2021/08/12 00:51:28;;;;;;;18.80;13.55;;;;;;;15.16;54.31;101928.09;5038266;28;20032;-70
2021/08/12 00:53:56;;;;;;;22.83;15.07;;;;;;;15.14;54.58;101943.94;5039490;28;20033;-71
2021/08/12 00:56:24;;;;;;;20.73;14.48;;;;;;;15.05;54.56;101936.44;5042631;28;20108;-70
2021/08/12 00:58:52;;;;;;;22.00;14.65;;;;;;;14.91;54.80;101933.56;5036184;28;20040;-71
2021/08/12 01:01:18;;;;;;;22.50;13.77;;;;;;;14.84;54.90;101934.72;5039320;28;20090;-70
2021/08/12 01:03:43;;;;;;;19.10;13.30;;;;;;;;;;5025282;28;20108;-71
2021/08/12 01:06:21;;;;;;;25.35;14.55;;;;;;;14.70;55.00;101928.25;5037852;28;20037;-70
2021/08/12 01:09:12;;;;;;;22.42;14.35;;;;;;;14.59;54.92;101927.84;5037975;28;20037;-71
2021/08/12 01:12:08;;;;;;;20.27;13.97;;;;;;;14.58;55.15;101922.63;5038387;28;20379;-71
2021/08/12 01:15:02;;;;;;;23.98;13.30;;;;;;;14.62;54.99;101925.06;5032208;28;20069;-71
2021/08/12 01:17:34;;;;;;;;;;;;;;;14.63;54.78;101916.25;5038197;28;20028;-71
2021/08/12 01:20:06;;;;;;;;;;;;;;;14.60;54.62;101921.63;5041653;28;19917;-71
2021/08/12 01:22:37;;;;;;;20.02;13.55;;;;;;;14.55;55.04;101918.34;5036781;28;19913;-70
2021/08/12 01:25:08;;;;;;;22.60;15.65;;;;;;;14.49;55.22;101910.69;5040455;28;20033;-71
2021/08/12 01:27:37;;;;;;;20.73;14.77;;;;;;;14.48;55.24;101907.22;5020108;28;20025;-70
2021/08/12 01:30:11;;;;;;;22.45;15.05;;;;;;;14.44;55.69;101910.03;5042626;28;20107;-71
2021/08/12 01:33:11;;;;;;;21.85;14.57;;;;;;;14.42;55.54;101917.13;5035446;28;20033;-70
2021/08/12 01:35:39;;;;;;;24.83;16.55;;;;;;;14.41;55.85;101913.66;5025185;28;20057;-70
2021/08/12 01:38:12;;;;;;;27.92;17.85;;;;;;;14.46;55.68;101908.19;5039104;28;20029;-70
2021/08/12 01:40:39;;;;;;;25.02;16.00;;;;;;;14.46;55.61;101908.19;5036229;28;20477;-71
2021/08/12 01:43:09;;;;;;;25.30;17.05;;;;;;;14.44;55.69;101912.66;5042533;28;20052;-71
2021/08/12 01:45:34;;;;;;;21.58;14.88;;;;;;;14.42;55.75;101898.72;5039664;28;20116;-69
2021/08/12 01:48:03;;;;;;;24.88;16.13;;;;;;;14.39;55.86;101896.16;5038494;28;20033;-72
2021/08/12 01:50:30;;;;;;;23.63;15.05;;;;;;;14.40;55.84;101888.22;5025295;28;20021;-70
2021/08/12 01:52:57;;;;;;;27.48;15.65;;;;;;;14.42;55.95;101903.97;5037759;28;20051;-70
2021/08/12 01:55:28;;;;;;;22.38;15.02;;;;;;;14.44;55.75;101899.50;5022941;28;20034;-71
2021/08/12 01:57:58;;;;;;;23.05;14.60;;;;;;;14.36;55.87;101900.63;5039254;28;20028;-71
2021/08/12 02:00:27;;;;;;;20.90;14.40;;;;;;;14.32;55.89;101901.69;5044441;28;20092;-71
2021/08/12 02:02:54;;;;;;;19.38;13.60;;;;;;;14.32;56.03;101896.41;5020232;28;20069;-71
2021/08/12 02:05:21;;;;;;;20.98;14.88;;;;;;;14.29;56.12;101893.91;5039552;28;20116;-71
2021/08/12 02:07:47;;;;;;;19.95;12.40;;;;;;;14.27;56.10;101893.09;5022168;28;20437;-71
2021/08/12 02:10:15;;;;;;;23.05;14.15;;;;;;;14.25;55.97;101891.44;5038317;28;20025;-71
2021/08/12 02:12:41;;;;;;;23.10;14.00;;;;;;;14.22;56.00;101883.69;5042249;28;20025;-69
2021/08/12 02:15:08;;;;;;;19.02;13.07;;;;;;;14.16;56.26;101890.03;5039215;28;20032;-71
2021/08/12 02:17:35;;;;;;;23.42;14.25;;;;;;;14.15;55.94;101893.59;5019698;28;20033;-70
2021/08/12 02:20:04;;;;;;;23.02;13.07;;;;;;;14.18;56.31;101893.47;5037945;28;20074;-70
2021/08/12 02:22:45;;;;;;;22.42;13.05;;;;;;;14.18;55.65;101898.72;5030749;28;20040;-70
2021/08/12 02:25:16;;;;;;;22.33;12.50;;;;;;;14.10;55.91;101896.41;5040991;28;20435;-70
2021/08/12 02:27:44;;;;;;;18.63;12.40;;;;;;;14.09;55.94;101888.56;5038780;28;20033;-70
2021/08/12 02:30:11;;;;;;;20.92;12.15;;;;;;;14.01;55.65;101885.38;5032849;28;20029;-70
2021/08/12 02:32:38;;;;;;;19.08;12.57;;;;;;;13.94;55.97;101885.63;5040698;28;20037;-70
2021/08/12 02:35:06;;;;;;;18.02;12.07;;;;;;;13.98;56.00;101888.97;5039244;28;20025;-70
2021/08/12 02:37:35;;;;;;;17.88;11.98;;;;;;;13.94;55.76;101890.88;5041990;28;20487;-70
2021/08/12 02:40:02;;;;;;;16.38;12.23;;;;;;;13.90;55.88;101883.19;5038833;28;20025;-71
2021/08/12 02:42:27;;;;;;;18.20;12.63;;;;;;;13.86;55.91;101886.81;5017684;28;20049;-71
2021/08/12 02:44:54;;;;;;;17.40;11.93;;;;;;;13.82;56.05;101887.84;5039262;28;20033;-70
2021/08/12 02:47:22;;;;;;;14.98;11.15;;;;;;;13.85;55.82;101896.50;5038669;28;20044;-71
2021/08/12 02:49:51;;;;;;;14.63;10.98;;;;;;;13.93;55.70;101899.66;5041026;28;20021;-71
2021/08/12 02:52:18;;;;;;;15.55;11.10;;;;;;;13.85;55.70;101896.50;5040449;28;20067;-71
2021/08/12 02:54:46;;;;;;;16.77;11.25;;;;;;;13.83;55.88;101897.44;5038783;28;20076;-71
2021/08/12 02:57:12;;;;;;;18.50;11.98;;;;;;;13.80;55.61;101898.41;5026177;28;20101;-70
2021/08/12 02:59:43;;;;;;;17.05;11.63;;;;;;;13.70;55.80;101897.91;5032491;28;20064;-70
2021/08/12 03:02:10;;;;;;;20.88;12.32;;;;;;;13.73;55.30;101889.91;5034312;28;20479;-70
2021/08/12 03:04:36;;;;;;;20.45;12.25;;;;;;;13.68;55.49;101898.88;5023576;28;20029;-71
2021/08/12 03:07:04;;;;;;;16.02;11.90;;;;;;;13.66;55.95;101900.72;5024824;28;20033;-70
2021/08/12 03:09:30;;;;;;;16.48;12.27;;;;;;;13.60;55.81;101895.66;5033036;28;20617;-70
2021/08/12 03:11:59;;;;;;;18.40;11.65;;;;;;;13.58;56.09;101902.75;5016871;28;20091;-71
2021/08/12 03:14:26;;;;;;;18.20;11.60;;;;;;;13.60;55.99;101898.28;5028852;28;20036;-70
2021/08/12 03:16:52;;;;;;;16.90;11.18;;;;;;;13.61;55.81;101897.41;5032687;28;20057;-70
2021/08/12 03:19:18;;;;;;;15.05;11.52;;;;;;;13.57;55.66;101895.78;5037937;28;20041;-69
2021/08/12 03:22:04;;;;;;;20.95;12.90;;;;;;;13.56;55.95;101899.28;5037917;28;20049;-70
2021/08/12 03:24:36;;;;;;;22.02;13.43;;;;;;;13.52;55.91;101898.56;5028704;28;20136;-70
2021/08/12 03:27:05;;;;;;;16.50;11.88;;;;;;;13.51;55.79;101900.31;5046495;28;20041;-70
2021/08/12 03:29:30;;;;;;;23.60;12.68;;;;;;;13.52;55.98;101888.91;5031092;28;20029;-71
2021/08/12 03:31:56;;;;;;;17.23;12.43;;;;;;;13.58;55.88;101884.38;5037434;28;20060;-71
2021/08/12 03:34:22;;;;;;;21.38;12.50;;;;;;;13.56;55.71;101884.38;5037850;28;20461;-70
2021/08/12 03:36:48;;;;;;;22.25;12.93;;;;;;;13.62;56.13;101888.59;5036501;28;20030;-70
2021/08/12 03:39:14;;;;;;;15.30;11.02;;;;;;;13.70;55.45;101889.19;5021234;28;20065;-70
2021/08/12 03:41:40;;;;;;;20.48;13.30;;;;;;;13.76;55.42;101888.94;5042734;28;20103;-71
2021/08/12 03:44:06;;;;;;;23.40;12.88;;;;;;;13.72;55.18;101884.72;5021155;28;20036;-70
2021/08/12 03:46:31;;;;;;;17.95;12.82;;;;;;;13.65;55.76;101891.09;5046896;28;20173;-71
2021/08/12 03:48:57;;;;;;;24.10;14.13;;;;;;;13.55;55.60;101887.06;5020070;28;20029;-71
2021/08/12 03:51:22;;;;;;;20.23;12.40;;;;;;;13.57;55.47;101886.13;5035752;28;20145;-70
2021/08/12 03:53:48;;;;;;;17.10;11.10;;;;;;;13.60;55.47;101890.41;5024038;28;20037;-70
2021/08/12 03:56:13;;;;;;;19.63;12.90;;;;;;;13.59;55.42;101886.09;5040978;28;20033;-70
2021/08/12 03:58:40;;;;;;;16.52;11.50;;;;;;;13.59;55.68;101886.09;5038921;28;20037;-70
2021/08/12 04:01:06;;;;;;;16.05;10.25;;;;;;;13.66;55.42;101895.44;5035631;28;20033;-71
2021/08/12 04:03:33;;;;;;;15.50;10.88;;;;;;;13.71;55.09;101896.97;5038017;28;20095;-71
2021/08/12 04:05:58;;;;;;;19.85;12.25;;;;;;;13.71;54.68;101891.72;5018305;28;20102;-72
2021/08/12 04:08:25;;;;;;;18.58;11.23;;;;;;;13.60;55.32;101898.28;5039542;28;20422;-70
2021/08/12 04:10:51;;;;;;;17.88;11.30;;;;;;;13.63;55.18;101890.28;5043122;28;20032;-70
2021/08/12 04:13:17;;;;;;;21.17;11.82;;;;;;;13.59;55.21;101888.72;5040021;28;20029;-71
2021/08/12 04:15:42;;;;;;;15.20;11.52;;;;;;;13.52;55.20;101886.28;5036455;28;20938;-71
2021/08/12 04:18:08;;;;;;;16.05;12.38;;;;;;;13.49;55.36;101883.75;5040663;28;20098;-70
2021/08/12 04:20:34;;;;;;;18.02;11.75;;;;;;;13.55;55.42;101887.94;5037993;28;20033;-71
2021/08/12 04:22:59;;;;;;;16.80;11.50;;;;;;;13.53;55.10;101881.88;5032427;28;20025;-71
2021/08/12 04:25:25;;;;;;;15.75;11.25;;;;;;;13.59;55.25;101888.72;5037033;28;20041;-71
2021/08/12 04:27:50;;;;;;;15.07;10.73;;;;;;;13.61;55.41;101876.38;5038765;28;20029;-71
2021/08/12 04:30:17;;;;;;;14.38;10.45;;;;;;;13.67;55.25;101881.38;5036180;28;20168;-71
2021/08/12 04:32:42;;;;;;;18.45;10.73;;;;;;;13.70;55.17;101881.28;5018921;28;20083;-70
2021/08/12 04:35:08;;;;;;;17.27;11.23;;;;;;;13.86;54.95;101884.19;5038186;28;20158;-70
2021/08/12 04:37:47;;;;;;;20.00;11.15;;;;;;;13.95;54.93;101891.72;5024748;28;20029;-71
2021/08/12 04:40:14;;;;;;;16.83;11.95;;;;;;;13.97;54.40;101887.28;5021143;28;20064;-71
2021/08/12 04:42:41;;;;;;;15.45;11.30;;;;;;;14.04;54.46;101878.22;5036501;28;20040;-71
2021/08/12 04:45:07;;;;;;;20.23;11.80;;;;;;;14.05;54.13;101879.94;5036081;28;20037;-70
2021/08/12 04:47:33;;;;;;;13.80;10.82;;;;;;;14.13;53.80;101874.38;5038946;28;20723;-70
2021/08/12 04:49:58;;;;;;;17.75;12.43;;;;;;;14.22;54.10;101879.28;5038609;28;20040;-70
2021/08/12 04:52:24;;;;;;;15.88;11.52;;;;;;;14.37;53.80;101877.81;5042361;28;20486;-70
2021/08/12 04:54:51;;;;;;;21.15;12.07;;;;;;;14.40;53.20;101877.69;5041411;28;20029;-70
2021/08/12 04:57:17;;;;;;;15.70;11.48;;;;;;;14.46;53.21;101884.53;5042330;28;20033;-70
2021/08/12 04:59:42;;;;;;;20.23;11.77;;;;;;;14.55;53.33;101889.41;5038313;28;20116;-70
2021/08/12 05:02:08;;;;;;;21.65;10.52;;;;;;;14.73;53.34;101880.75;5038481;28;20037;-71
2021/08/12 05:04:35;;;;;;;26.20;13.38;;;;;;;14.86;51.91;101882.88;5020206;28;20067;-71
2021/08/12 05:07:00;;;;;;;18.02;11.02;;;;;;;14.85;51.99;101870.63;5034396;28;20514;-71
2021/08/12 05:09:27;;;;;;;16.48;11.20;;;;;;;14.84;51.93;101879.47;5034836;28;20088;-70
2021/08/12 05:11:54;;;;;;;23.50;11.43;;;;;;;14.88;51.88;101883.66;5035037;28;20033;-70
2021/08/12 05:14:19;;;;;;;17.20;12.73;;;;;;;15.11;51.91;101885.31;5032092;28;20552;-70
2021/08/12 05:16:45;;;;;;;19.98;12.48;;;;;;;15.37;51.16;101892.97;5037161;28;20755;-70
2021/08/12 05:19:11;;;;;;;15.73;10.40;;;;;;;15.55;51.10;101887.78;5033255;28;20025;-70
2021/08/12 05:21:37;;;;;;;14.05;10.32;;;;;;;15.67;50.40;101883.75;5035706;28;20037;-70
2021/08/12 05:24:02;;;;;;;17.27;11.65;;;;;;;15.57;50.21;101884.19;5034396;28;20045;-71
2021/08/12 05:26:28;;;;;;;15.85;11.07;;;;;;;15.67;49.89;101884.59;5039872;28;20045;-71
2021/08/12 05:28:54;;;;;;;15.30;11.27;;;;;;;15.83;49.26;101886.53;5019217;28;20632;-71
2021/08/12 05:31:20;;;;;;;15.40;10.40;;;;;;;16.32;49.09;101882.44;5036722;28;20025;-70
2021/08/12 05:33:45;;;;;;;14.82;11.35;;;;;;;17.79;46.36;101878.50;5038806;28;20385;-70
2021/08/12 05:36:11;;;;;;;15.40;11.02;;;;;;;18.84;43.16;101884.03;5037339;28;20032;-71
2021/08/12 05:38:36;;;;;;;13.63;10.20;;;;;;;19.66;40.90;101877.34;5039994;28;20033;-71
2021/08/12 05:41:02;;;;;;;15.10;9.52;;;;;;;19.11;41.26;101870.94;5018519;28;20544;-70
2021/08/12 05:43:28;;;;;;;13.38;10.02;;;;;;;18.74;41.87;101883.69;5036706;28;20119;-70
2021/08/12 05:45:55;;;;;;;14.02;9.40;;;;;;;18.08;42.93;101874.25;5020993;28;20025;-70
2021/08/12 05:48:20;;;;;;;15.27;11.10;;;;;;;17.90;44.19;101881.41;5040169;28;20339;-70
2021/08/12 05:50:46;;;;;;;16.17;10.73;;;;;;;17.52;46.10;101873.78;5036073;28;20147;-70
2021/08/12 05:53:14;;;;;;;16.30;11.27;;;;;;;18.74;43.67;101874.91;5035571;28;20078;-71
2021/08/12 05:55:40;;;;;;;14.73;10.02;;;;;;;20.02;40.40;101879.44;5038993;28;20026;-70
2021/08/12 05:58:06;;;;;;;14.70;10.00;;;;;;;20.28;40.17;101872.47;5017506;28;20482;-71
2021/08/12 06:00:32;;;;;;;13.73;10.35;;;;;;;21.16;38.22;101877.19;5040535;28;20195;-71
2021/08/12 06:03:06;;;;;;;18.38;11.35;;;;;;;22.39;35.31;101873.72;5025503;28;20482;-71
2021/08/12 06:05:33;;;;;;;15.02;9.38;;;;;;;22.37;35.46;101873.00;5024324;28;20435;-71
2021/08/12 06:08:02;;;;;;;16.77;10.23;;;;;;;21.41;36.39;101878.13;5040636;28;20033;-71
2021/08/12 06:10:28;;;;;;;15.57;10.48;;;;;;;22.27;36.72;101875.50;5017758;28;20033;-71
2021/08/12 06:12:55;;;;;;;12.70;9.40;;;;;;;22.02;36.54;101878.22;5037370;28;20443;-70
2021/08/12 06:15:22;;;;;;;17.15;10.10;;;;;;;21.11;37.19;101879.31;5028646;28;20025;-70
2021/08/12 06:17:48;;;;;;;12.68;10.25;;;;;;;22.47;35.44;101876.66;5040951;28;20032;-71
2021/08/12 06:20:13;;;;;;;17.92;10.60;;;;;;;22.64;33.86;101872.72;5040265;28;20033;-71
2021/08/12 06:22:39;;;;;;;10.90;8.68;;;;;;;21.41;37.28;101873.66;5026513;28;20562;-70
2021/08/12 06:25:05;;;;;;;15.10;10.50;;;;;;;20.83;37.70;101870.56;5039976;28;20476;-69
2021/08/12 06:27:31;;;;;;;12.45;9.45;;;;;;;21.07;37.96;101875.19;5041474;28;20101;-70
2021/08/12 06:29:56;;;;;;;15.13;10.32;;;;;;;20.91;37.62;101878.91;5046518;28;20103;-70
2021/08/12 06:32:22;;;;;;;17.23;11.65;;;;;;;20.26;39.32;101876.16;5046878;28;20062;-69
2021/08/12 06:34:48;;;;;;;19.55;11.07;;;;;;;19.56;40.70;101887.66;5038274;28;20115;-70
2021/08/12 06:37:14;;;;;;;15.95;11.10;;;;;;;20.00;40.73;101883.13;5028914;28;20033;-70
2021/08/12 06:39:39;;;;;;;11.27;8.98;;;;;;;20.41;39.95;101892.88;5033324;28;20030;-71
2021/08/12 06:42:05;;;;;;;12.13;9.13;;;;;;;20.95;39.34;101884.84;5020168;28;20028;-70
2021/08/12 06:44:51;;;;;;;12.38;9.18;;;;;;;20.18;39.74;101891.72;5042139;28;20124;-70
2021/08/12 06:47:16;;;;;;;15.38;11.30;;;;;;;19.52;41.12;101894.03;5020480;28;20118;-70
2021/08/12 06:49:44;;;;;;;14.32;10.88;;;;;;;19.66;42.44;101891.44;5022968;28;20509;-71
2021/08/12 06:52:09;;;;;;;13.77;10.63;;;;;;;21.65;38.06;101884.41;5026160;28;20029;-71
2021/08/12 06:54:36;;;;;;;13.30;10.70;;;;;;;25.11;32.29;101886.66;5019471;28;20033;-70
2021/08/12 06:57:01;;;;;;;13.05;8.32;;;;;;;27.03;27.59;101885.38;5033285;28;20036;-70
2021/08/12 06:59:27;;;;;;;15.02;9.68;;;;;;;27.17;29.31;101889.44;5039862;28;20043;-70
2021/08/12 07:01:53;;;;;;;18.00;9.18;;;;;;;26.52;28.59;101894.63;5037432;28;20033;-70
2021/08/12 07:04:20;;;;;;;19.55;10.38;;;;;;;25.99;29.46;101897.66;5036217;28;20056;-70
2021/08/12 07:06:48;;;;;;;10.25;8.38;;;;;;;27.77;27.62;101899.78;5021687;28;20030;-71
2021/08/12 07:09:14;;;;;;;14.98;9.40;;;;;;;28.03;27.49;101904.41;5026457;28;20052;-70
2021/08/12 07:11:39;;;;;;;8.15;7.13;;;;;;;29.41;26.15;101898.41;5041922;28;20073;-72
2021/08/12 07:14:06;;;;;;;13.73;8.82;;;;;;;30.89;23.22;101893.25;5033410;28;20407;-69
2021/08/12 07:16:34;;;;;;;12.02;8.82;;;;;;;30.76;23.31;101900.03;5042092;28;20029;-70
2021/08/12 07:19:00;;;;;;;13.75;9.13;;;;;;;31.17;23.11;101896.41;5036348;28;20025;-70
2021/08/12 07:21:25;;;;;;;11.25;9.02;;;;;;;29.35;25.16;101904.47;5040232;28;20029;-72
2021/08/12 07:23:55;;;;;;;11.23;8.65;;;;;;;29.42;24.52;101897.44;5023185;28;20026;-71
2021/08/12 07:26:22;;;;;;;19.98;9.73;;;;;;;29.40;25.72;101901.28;5044379;28;20067;-71
2021/08/12 07:28:48;;;;;;;17.50;9.57;;;;;;;30.22;24.42;101893.44;5024379;28;20030;-71
2021/08/12 07:31:18;;;;;;;15.50;10.20;;;;;;;28.19;26.67;101893.88;5033856;28;20104;-71
2021/08/12 07:33:44;;;;;;;11.32;10.25;;;;;;;29.63;24.71;101894.31;5022217;28;20064;-71
2021/08/12 07:36:11;;;;;;;26.33;9.45;;;;;;;30.10;24.61;101892.94;5020175;28;20394;-70
2021/08/12 07:38:37;;;;;;;16.48;7.65;;;;;;;31.69;24.04;101895.00;5037039;28;20095;-70
2021/08/12 07:41:03;;;;;;;10.10;7.95;;;;;;;32.44;21.92;101892.47;5034537;28;20037;-70
2021/08/12 07:43:29;;;;;;;8.02;7.03;;;;;;;32.91;21.56;101893.22;5036219;28;20033;-71
2021/08/12 07:45:54;;;;;;;8.57;7.68;;;;;;;32.77;21.12;101889.44;5034869;28;20063;-71
2021/08/12 07:48:20;;;;;;;12.20;7.15;;;;;;;32.95;21.22;101893.69;5038816;28;20032;-71
2021/08/12 07:50:47;;;;;;;11.27;7.97;;;;;;;32.94;21.43;101897.41;5032423;28;20037;-70
2021/08/12 07:53:12;;;;;;;8.63;7.00;;;;;;;32.98;20.73;101896.03;5041554;28;20090;-71
2021/08/12 07:55:38;;;;;;;9.20;6.85;;;;;;;32.21;21.60;101897.06;5034322;28;20230;-71
2021/08/12 07:58:03;;;;;;;9.35;8.07;;;;;;;31.71;22.62;101891.09;5023328;28;20033;-71
2021/08/12 08:00:29;;;;;;;9.77;7.43;;;;;;;31.93;21.69;101889.47;5037755;28;20116;-71
2021/08/12 08:02:55;;;;;;;11.70;6.18;;;;;;;32.63;21.50;101893.84;5035179;28;20084;-71
2021/08/12 08:05:23;;;;;;;9.07;7.32;;;;;;;30.72;22.42;101887.06;5038889;28;20041;-71
2021/08/12 08:07:49;;;;;;;14.95;6.75;;;;;;;32.20;21.91;101889.94;5032796;28;20095;-71
2021/08/12 08:10:21;;;;;;;10.00;6.95;;;;;;;33.29;21.34;101893.13;5045483;28;20477;-70
2021/08/12 08:12:47;;;;;;;8.18;6.72;;;;;;;32.94;20.62;101898.25;5040355;28;20078;-70
2021/08/12 08:15:15;;;;;;;14.10;7.68;;;;;;;32.69;22.08;101897.66;5040483;28;20040;-70
2021/08/12 08:17:41;;;;;;;8.35;6.28;;;;;;;34.24;19.86;101893.97;5038945;28;20144;-71
2021/08/12 08:20:09;;;;;;;11.68;6.88;;;;;;;33.67;19.39;101901.91;5042839;28;20063;-71
2021/08/12 08:22:35;;;;;;;14.57;6.03;;;;;;;33.59;19.98;101909.31;5040800;28;20025;-71
2021/08/12 08:25:01;;;;;;;8.25;6.10;;;;;;;33.05;21.21;101914.03;5039316;28;20037;-71
2021/08/12 08:27:26;;;;;;;8.57;7.10;;;;;;;32.31;21.61;101902.22;5040285;28;20036;-71
2021/08/12 08:29:52;;;;;;;12.82;6.18;;;;;;;31.47;22.04;101897.47;5037092;28;20034;-70
2021/08/12 08:32:18;;;;;;;7.55;5.72;;;;;;;32.17;22.02;101906.56;5031433;28;20029;-71
2021/08/12 08:34:46;;;;;;;11.75;5.10;;;;;;;32.84;21.57;101903.94;5035095;28;20029;-71
2021/08/12 08:37:11;;;;;;;7.75;4.97;;;;;;;33.81;19.56;101902.94;5042246;28;20033;-72
2021/08/12 08:39:37;;;;;;;8.25;5.80;;;;;;;32.49;20.60;101901.91;5040838;28;20041;-71
2021/08/12 08:42:03;;;;;;;5.88;4.07;;;;;;;33.11;21.17;101903.50;5039222;28;20037;-70
2021/08/12 08:44:30;;;;;;;6.25;5.43;;;;;;;33.33;20.32;101901.75;5034770;28;20520;-71
2021/08/12 08:46:58;;;;;;;9.43;4.85;;;;;;;33.04;20.27;101903.41;5035612;28;20041;-71
2021/08/12 08:49:24;;;;;;;13.57;4.40;;;;;;;32.93;21.00;101909.28;5038052;28;20167;-71
2021/08/12 08:51:50;;;;;;;6.22;4.80;;;;;;;33.20;20.20;101900.50;5042513;28;20040;-69
2021/08/12 08:54:16;;;;;;;7.70;5.40;;;;;;;32.72;20.50;101901.84;5041852;28;20059;-70
2021/08/12 08:56:43;;;;;;;7.65;4.70;;;;;;;32.38;21.10;101906.72;5040844;28;20036;-71
2021/08/12 08:59:09;;;;;;;9.43;5.70;;;;;;;31.41;21.69;101907.09;5036079;28;20044;-72
2021/08/12 09:01:38;;;;;;;10.80;6.63;;;;;;;31.54;21.45;101898.47;5036249;28;20037;-71
2021/08/12 09:04:05;;;;;;;9.40;5.50;;;;;;;32.07;21.32;101898.66;5037974;28;20084;-70
2021/08/12 09:06:30;;;;;;;9.65;5.20;;;;;;;32.19;20.30;101891.00;5040006;28;20037;-69
2021/08/12 09:08:57;;;;;;;11.82;5.18;;;;;;;30.75;22.09;101887.53;5035355;28;20030;-71
2021/08/12 09:11:24;;;;;;;5.93;4.50;;;;;;;29.03;24.70;101884.41;5035361;28;20033;-70
2021/08/12 09:13:49;;;;;;;8.32;6.18;;;;;;;28.97;24.48;101890.44;5037666;28;20040;-71
2021/08/12 09:16:35;;;;;;;7.88;6.43;;;;;;;28.53;24.24;101893.97;5040637;28;20033;-70
2021/08/12 09:19:21;;;;;;;6.65;5.18;;;;;;;28.74;23.86;101890.13;5026835;28;20065;-72
2021/08/12 09:21:48;;;;;;;5.30;4.80;;;;;;;29.24;24.75;101883.19;5033812;28;20033;-71
2021/08/12 09:24:13;;;;;;;7.13;5.55;;;;;;;28.60;23.76;101898.75;5033966;28;20111;-72
2021/08/12 09:26:40;;;;;;;7.47;5.07;;;;;;;27.60;25.49;101895.19;5038211;28;20040;-70
2021/08/12 09:29:07;;;;;;;6.18;4.00;;;;;;;28.06;24.90;101888.84;5021378;28;20112;-73
2021/08/12 09:31:33;;;;;;;6.40;3.97;;;;;;;28.22;25.22;101884.66;5037435;28;20028;-71
2021/08/12 09:33:58;;;;;;;8.10;4.00;;;;;;;27.84;25.35;101897.34;5036839;28;20036;-71
2021/08/12 09:36:36;;;;;;;7.90;4.20;;;;;;;27.82;25.91;101889.41;5041319;28;20406;-71
2021/08/12 09:39:20;;;;;;;6.43;4.60;;;;;;;27.70;25.81;101890.66;5036137;28;20486;-71
2021/08/12 09:41:51;;;;;;;5.43;3.75;;;;;;;26.80;26.55;101897.41;5036485;28;20072;-72
2021/08/12 09:44:51;;;;;;;9.75;5.45;;;;;;;25.87;28.05;101888.91;5039004;28;20032;-70
2021/08/12 09:47:20;;;;;;;4.37;3.63;;;;;;;26.85;26.26;101895.16;5043075;28;20032;-71
2021/08/12 09:49:46;;;;;;;5.35;3.95;;;;;;;27.71;25.15;101884.25;5043137;28;20029;-71
2021/08/12 09:52:27;;;;;;;7.38;3.30;;;;;;;26.93;26.48;101887.22;5045452;28;20074;-71
2021/08/12 09:55:21;;;;;;;8.30;5.07;;;;;;;26.89;25.93;101875.09;5041217;28;20036;-71
2021/08/12 09:57:48;;;;;;;8.15;3.80;;;;;;;28.18;25.13;101894.00;5039532;28;20111;-71
2021/08/12 10:00:32;;;;;;;12.20;4.50;;;;;;;27.49;25.43;101891.69;5036492;28;20644;-70
2021/08/12 10:02:59;;;;;;;7.75;4.32;;;;;;;26.96;26.34;101886.09;5023509;28;20033;-70
2021/08/12 10:05:25;;;;;;;6.10;4.60;;;;;;;26.64;27.29;101898.84;5036938;28;20053;-71
2021/08/12 10:07:53;;;;;;;5.22;4.03;;;;;;;26.56;26.84;101884.44;5043186;28;20051;-71
2021/08/12 10:10:24;;;;;;;5.43;4.85;;;;;;;26.90;26.13;101888.38;5036534;28;20033;-71
2021/08/12 10:12:51;;;;;;;;;;;;;;;26.44;26.11;101891.78;5033230;28;20052;-70
2021/08/12 10:15:22;;;;;;;12.40;3.78;;;;;;;26.80;27.02;101886.69;5036754;28;20396;-69
2021/08/12 10:17:49;;;;;;;7.32;3.25;;;;;;;28.07;24.33;101887.81;5016005;28;20041;-70
2021/08/12 10:20:21;;;;;;;3.90;3.08;;;;;;;28.27;25.63;101896.59;5037444;28;20129;-71
2021/08/12 10:22:48;;;;;;;6.35;3.22;;;;;;;28.38;24.79;101897.38;5038228;28;20036;-71
2021/08/12 10:25:16;;;;;;;5.80;3.17;;;;;;;28.46;25.62;101892.09;5043633;28;20033;-70
2021/08/12 10:27:43;;;;;;;5.97;3.85;;;;;;;28.38;25.33;101894.69;5036773;28;20029;-72
2021/08/12 10:30:10;;;;;;;8.00;4.32;;;;;;;27.27;26.06;101894.75;5039961;28;20108;-71
2021/08/12 10:32:40;;;;;;;4.00;3.40;;;;;;;28.66;24.79;101896.28;5045272;28;20098;-71
2021/08/12 10:35:07;;;;;;;6.22;3.53;;;;;;;28.87;24.78;101895.09;5051020;28;20040;-71
2021/08/12 10:37:33;;;;;;;5.55;3.80;;;;;;;29.22;24.73;101890.63;5038351;28;20028;-70
2021/08/12 10:39:59;;;;;;;5.78;4.05;;;;;;;28.88;25.12;101896.75;5038747;28;20055;-71
2021/08/12 10:42:25;;;;;;;8.55;5.00;;;;;;;28.16;24.72;101901.38;5042616;28;20525;-71
2021/08/12 10:44:51;;;;;;;7.13;4.35;;;;;;;29.61;22.83;101898.19;5036158;28;20094;-71
2021/08/12 10:47:41;;;;;;;6.45;3.90;;;;;;;27.63;24.46;101901.13;5041756;28;20102;-71
2021/08/12 10:50:22;;;;;;;7.55;3.45;;;;;;;27.53;25.49;101895.78;5036337;28;20021;-70
2021/08/12 10:53:21;;;;;;;7.57;3.45;;;;;;;28.08;24.64;101897.59;5025358;28;20047;-71
2021/08/12 10:55:49;;;;;;;11.25;3.78;;;;;;;28.51;23.94;101895.13;5035172;28;20045;-71
2021/08/12 11:00:47;;;;;;;3.70;2.13;;;;;;;29.27;22.62;101894.50;5037730;28;20021;-71
2021/08/12 11:03:13;;;;;;;4.47;2.05;;;;;;;28.18;24.82;101894.84;5033309;28;20056;-70
2021/08/12 11:06:03;;;;;;;6.90;3.97;;;;;;;27.52;24.84;101899.47;5028874;28;20039;-72
2021/08/12 11:08:57;;;;;;;4.20;2.80;;;;;;;27.76;24.51;101899.91;5025609;28;20055;-71
2021/08/12 11:11:26;;;;;;;3.25;2.65;;;;;;;27.88;24.81;101893.34;5035386;28;20124;-70
2021/08/12 11:14:01;;;;;;;4.60;2.15;;;;;;;28.36;25.01;101896.69;5037966;28;20059;-70
2021/08/12 11:16:49;;;;;;;6.72;2.35;;;;;;;28.26;22.80;101903.00;5042337;28;20048;-71
2021/08/12 11:19:21;;;;;;;7.05;3.20;;;;;;;28.33;23.52;101892.47;5037010;28;20075;-71
2021/08/12 11:21:47;;;;;;;4.25;1.85;;;;;;;28.99;23.39;101893.81;5034322;28;20037;-70
2021/08/12 11:24:24;;;;;;;6.28;3.13;;;;;;;27.88;23.14;101894.19;5033422;28;20044;-70